SCAR METAR and TAF weather

Enter ICAO airport designator
Station Type Date Time Source
SCAR METAR 2021/05/11 00:00 UTC NOAA

SCAR 110000Z VRB02KT CAVOK 18/14 Q1013


Station Type Date Time Source
SCAR Decoded METAR 2021/05/11 00:00 UTC NOAA

Arica, Chile (SCAR) 18-20S 070-20W 58M
May 10, 2021 - 08:00 PM EDT / 2021.05.11 0000 UTC
Wind: Variable at 2 MPH (2 KT):0
Visibility: greater than 7 mile(s):0
Temperature: 64 F (18 C)
Dew Point: 57 F (14 C)
Relative Humidity: 77%
Pressure (altimeter): 29.91 in. Hg (1013 hPa)
ob: SCAR 110000Z VRB02KT CAVOK 18/14 Q1013
cycle: 0

Station Type Date Time Source
SCAR TAF 2021/05/11 00:00 UTC NOAA

TAF SCAR 102211Z 1100/1124 19004KT CAVOK TN17/1108Z TX21/1118Z
BECMG 1102/1104 33004KT OVC030
BECMG 1116/1118 21012KT CAVOK

Example: see airport list